Time;durP1;ratioP1;P1;durP2;ratioP2;P2;SDS_P1;SDS_P2;PMS_P1;PMS_P2;Temp;Humidity;BMP_temperature;BMP_pressure;BME280_temperature;BME280_humidity;BME280_pressure;Samples;Min_cycle;Max_cycle;Signal;HPM_P1;HPM_P2
2021/07/31 00:24:26;;;;;;;14.45;6.25;;;;;;;16.75;69.65;99593.94;21328060;80;100449;-80
2021/07/31 00:54:28;;;;;;;10.43;5.33;;;;;;;16.72;70.96;99559.47;21278774;82;99480;-80
2021/07/31 01:24:28;;;;;;;11.27;5.53;;;;;;;16.72;71.75;99542.01;21259039;81;99247;-80
2021/07/31 01:54:29;;;;;;;14.20;6.53;;;;;;;16.82;71.88;99561.78;21325436;81;99201;-80
2021/07/31 02:24:30;;;;;;;;;;;;;;;16.81;72.21;99536.00;21357479;81;99309;-80
2021/07/31 02:54:30;;;;;;;13.83;7.03;;;;;;;16.73;74.21;99520.73;21321364;80;85295;-80
2021/07/31 03:24:31;;;;;;;;;;;;;;;16.67;73.22;99512.77;21304239;80;99252;-80
2021/07/31 03:54:37;;;;;;;12.43;6.65;;;;;;;16.93;74.21;99491.37;21217697;82;86103;-80
2021/07/31 04:24:38;;;;;;;11.43;5.07;;;;;;;17.03;72.82;99482.75;21201819;82;99698;-80
2021/07/31 04:54:42;;;;;;;10.18;5.58;;;;;;;17.71;71.64;99482.22;21180470;82;99620;-80
2021/07/31 05:24:42;;;;;;;12.37;5.23;;;;;;;18.16;71.29;99482.67;21217175;82;99316;-78
2021/07/31 05:54:44;;;;;;;11.15;5.25;;;;;;;18.95;70.18;99455.88;21210760;82;100196;-79
2021/07/31 06:24:45;;;;;;;12.78;6.47;;;;;;;21.98;64.27;99480.58;21154504;82;100273;-80
2021/07/31 06:54:45;;;;;;;13.78;6.03;;;;;;;24.60;56.78;99467.92;21183797;82;99607;-79
2021/07/31 07:24:46;;;;;;;8.40;4.83;;;;;;;26.21;54.01;99485.63;21211206;82;100002;-80
2021/07/31 07:54:48;;;;;;;9.25;5.15;;;;;;;26.11;51.38;99504.03;21304319;81;100137;-80
2021/07/31 08:24:49;;;;;;;22.95;4.35;;;;;;;27.63;46.16;99508.43;21342370;80;99439;-78
2021/07/31 08:54:49;;;;;;;10.10;3.30;;;;;;;27.63;46.16;99508.43;21304994;81;99658;-79
2021/07/31 09:25:13;;;;;;;4.85;2.87;;;;;;;29.88;41.05;99517.92;21326096;80;100550;-81
2021/07/31 09:55:13;;;;;;;5.42;2.52;;;;;;;31.28;36.29;99535.72;21340607;80;101031;-80
2021/07/31 10:25:18;;;;;;;4.15;2.42;;;;;;;33.07;34.23;99525.62;21326415;80;99550;-79
2021/07/31 10:55:21;;;;;;;4.92;2.15;;;;;;;31.32;33.08;99532.59;21243539;82;99543;-80
2021/07/31 11:25:23;;;;;;;6.95;2.75;;;;;;;31.65;31.30;99532.05;21226829;81;99233;-80
2021/07/31 11:55:25;;;;;;;7.72;1.92;;;;;;;31.80;31.24;99533.09;21334361;81;99463;-80
2021/07/31 12:25:29;;;;;;;6.42;1.87;;;;;;;30.60;30.50;99543.47;21288581;80;99238;-81
2021/07/31 12:55:30;;;;;;;2.72;1.55;;;;;;;30.37;30.23;99536.52;21333067;80;99355;-79
2021/07/31 13:25:34;;;;;;;7.85;2.12;;;;;;;29.88;30.84;99533.53;21344457;80;99516;-80
2021/07/31 13:55:36;;;;;;;4.15;1.65;;;;;;;29.01;32.08;99520.15;21279991;81;99168;-79
2021/07/31 14:25:41;;;;;;;5.97;1.70;;;;;;;28.68;31.36;99514.64;21317199;80;98963;-79
2021/07/31 14:55:42;;;;;;;25.75;3.95;;;;;;;28.76;30.97;99511.37;20857969;82;99328;-80
2021/07/31 15:25:42;;;;;;;3.55;1.47;;;;;;;28.29;31.40;99499.83;20875560;83;99525;-79
2021/07/31 15:55:43;;;;;;;4.08;1.37;;;;;;;27.62;31.75;99493.42;21300739;80;99239;-79
2021/07/31 16:25:44;;;;;;;5.35;1.22;;;;;;;27.35;32.91;99503.43;21336666;81;99061;-84
2021/07/31 16:55:45;;;;;;;7.85;1.50;;;;;;;26.51;33.28;99493.06;21030262;81;99173;-86
2021/07/31 17:25:46;;;;;;;3.17;1.17;;;;;;;25.79;34.51;99504.58;20917216;83;99106;-91
2021/07/31 17:55:46;;;;;;;6.83;1.47;;;;;;;25.00;35.59;99525.52;20799498;83;99714;-86
2021/07/31 18:25:47;;;;;;;8.20;1.57;;;;;;;24.43;36.80;99542.09;20777973;83;99182;-86
2021/07/31 18:55:48;;;;;;;5.17;1.55;;;;;;;23.81;37.22;99586.66;20778248;83;99681;-85
2021/07/31 19:26:09;;;;;;;2.98;1.10;;;;;;;23.04;38.82;99614.09;20803082;83;99144;-86
2021/07/31 19:56:10;;;;;;;3.13;0.90;;;;;;;22.21;39.92;99617.14;20839992;83;99666;-86
2021/07/31 20:26:11;;;;;;;8.73;2.08;;;;;;;21.34;41.92;99662.66;20747928;83;99252;-86
2021/07/31 20:56:12;;;;;;;4.57;1.70;;;;;;;20.25;44.72;99662.93;20356128;85;100900;-86
2021/07/31 21:26:14;;;;;;;4.40;1.23;;;;;;;19.21;47.91;99674.88;20825282;83;99350;-86
2021/07/31 21:56:15;;;;;;;9.07;3.97;;;;;;;18.32;50.86;99676.14;20148581;85;99314;-85
2021/07/31 22:26:15;;;;;;;8.27;3.00;;;;;;;17.73;52.93;99705.19;20421775;85;99441;-85
2021/07/31 22:56:17;;;;;;;5.35;1.90;;;;;;;17.19;54.50;99719.61;20334398;85;99211;-86
2021/07/31 23:26:17;;;;;;;5.60;1.70;;;;;;;16.78;55.86;99724.44;20289725;85;99134;-87
2021/07/31 23:56:18;;;;;;;7.08;1.65;;;;;;;16.40;57.66;99722.63;20573345;83;99153;-87
